createdAt,value
2023-01-26T00:00:59.767Z,90.62
2023-01-26T00:03:28.157Z,90.17
2023-01-26T00:05:55.627Z,90.88
2023-01-26T00:08:23.094Z,90.95
2023-01-26T00:10:53.700Z,91.49
2023-01-26T00:13:22.480Z,91.30
2023-01-26T00:15:50.001Z,92.21
2023-01-26T00:18:18.821Z,92.40
2023-01-26T00:20:46.372Z,92.81
2023-01-26T00:23:13.945Z,93.05
2023-01-26T00:25:41.545Z,92.31
2023-01-26T00:28:09.010Z,92.06
2023-01-26T00:30:36.594Z,91.96
2023-01-26T00:33:04.060Z,91.92
2023-01-26T00:35:32.894Z,92.07
2023-01-26T00:38:00.379Z,92.48
2023-01-26T00:40:27.945Z,92.81
2023-01-26T00:42:55.433Z,92.29
2023-01-26T00:45:22.948Z,92.34
2023-01-26T00:47:50.423Z,92.26
2023-01-26T00:50:18.656Z,91.65
2023-01-26T00:52:47.453Z,92.81
2023-01-26T00:55:15.062Z,91.85
2023-01-26T00:57:42.567Z,91.45
2023-01-26T01:00:13.800Z,91.46
2023-01-26T01:02:41.358Z,91.94
2023-01-26T01:05:11.678Z,92.03
2023-01-26T01:07:39.159Z,91.86
2023-01-26T01:10:10.378Z,91.18
2023-01-26T01:12:38.027Z,91.45
2023-01-26T01:15:06.423Z,90.77
2023-01-26T01:17:33.993Z,90.79
2023-01-26T01:20:01.528Z,91.55
2023-01-26T01:22:29.010Z,91.67
2023-01-26T01:24:56.514Z,91.71
2023-01-26T01:27:25.462Z,92.37
2023-01-26T01:29:55.066Z,92.32
2023-01-26T01:32:22.519Z,92.33
2023-01-26T01:34:50.683Z,91.74
2023-01-26T01:37:18.582Z,91.47
2023-01-26T01:39:46.112Z,91.66
2023-01-26T01:42:13.623Z,92.21
2023-01-26T01:44:44.190Z,92.82
2023-01-26T01:47:14.887Z,92.40
2023-01-26T01:49:45.126Z,92.36
2023-01-26T01:52:14.801Z,91.72
2023-01-26T01:54:44.934Z,92.43
2023-01-26T01:57:17.655Z,92.45
2023-01-26T01:59:50.623Z,91.88
2023-01-26T02:02:19.105Z,91.27
2023-01-26T02:04:46.651Z,91.88
2023-01-26T02:07:14.728Z,92.68
2023-01-26T02:10:00.551Z,91.53
2023-01-26T02:12:30.795Z,91.63
2023-01-26T02:14:59.935Z,91.25
2023-01-26T02:17:27.405Z,90.96
2023-01-26T02:20:00.652Z,91.25
2023-01-26T02:22:34.091Z,91.25
2023-01-26T02:25:05.811Z,91.13
2023-01-26T02:27:35.270Z,91.00
2023-01-26T02:30:04.094Z,91.42
2023-01-26T02:32:31.576Z,91.22
2023-01-26T02:34:59.331Z,91.37
2023-01-26T02:37:26.879Z,90.55
2023-01-26T02:39:57.358Z,90.82
2023-01-26T02:42:42.106Z,90.87
2023-01-26T02:45:12.441Z,91.02
2023-01-26T02:47:40.445Z,90.20
2023-01-26T02:50:08.079Z,89.89
2023-01-26T02:52:35.816Z,89.46
2023-01-26T02:55:21.220Z,88.86
2023-01-26T02:57:49.611Z,88.80
2023-01-26T03:00:20.211Z,88.65
2023-01-26T03:02:47.863Z,88.80
2023-01-26T03:05:15.460Z,88.62
2023-01-26T03:07:42.907Z,88.23
2023-01-26T03:10:11.871Z,88.21
2023-01-26T03:12:39.577Z,87.96
2023-01-26T03:15:25.662Z,88.37
2023-01-26T03:18:33.476Z,88.89
2023-01-26T03:21:20.043Z,87.97
2023-01-26T03:24:05.420Z,87.71
2023-01-26T03:26:50.821Z,87.90
2023-01-26T03:29:18.319Z,87.80
2023-01-26T03:31:45.809Z,88.42
2023-01-26T03:34:14.700Z,87.95
2023-01-26T03:36:42.181Z,87.68
2023-01-26T03:39:09.646Z,88.10
2023-01-26T03:41:54.912Z,88.04
2023-01-26T03:44:40.169Z,87.70
2023-01-26T03:47:25.488Z,87.25
2023-01-26T03:50:12.389Z,87.73
2023-01-26T03:52:57.601Z,87.64
2023-01-26T03:55:43.017Z,87.63
2023-01-26T03:58:10.500Z,87.59
2023-01-26T04:00:37.989Z,87.76
2023-01-26T04:03:23.384Z,87.76
2023-01-26T04:06:15.750Z,87.92
2023-01-26T04:08:44.049Z,87.87
2023-01-26T04:11:11.527Z,88.14
2023-01-26T04:13:56.300Z,87.84
2023-01-26T04:16:41.526Z,88.10
2023-01-26T04:19:26.843Z,88.89
2023-01-26T04:21:55.766Z,88.32
2023-01-26T04:24:24.422Z,88.28
2023-01-26T04:26:52.079Z,88.08
2023-01-26T04:29:19.567Z,87.61
2023-01-26T04:31:47.092Z,87.10
2023-01-26T04:34:15.956Z,87.64
2023-01-26T04:36:43.738Z,87.75
2023-01-26T04:39:12.556Z,87.48
2023-01-26T04:41:42.251Z,88.02
2023-01-26T04:44:10.009Z,87.80
2023-01-26T04:46:37.555Z,87.99
2023-01-26T04:49:05.266Z,87.40
2023-01-26T04:51:32.734Z,86.97
2023-01-26T04:54:00.233Z,87.63
2023-01-26T04:56:31.191Z,87.04
2023-01-26T04:59:00.281Z,86.56
2023-01-26T05:01:28.270Z,87.12
2023-01-26T05:03:55.977Z,86.51
2023-01-26T05:06:23.547Z,86.98
2023-01-26T05:08:51.098Z,87.34
2023-01-26T05:11:18.583Z,87.73
2023-01-26T05:13:47.645Z,87.70
2023-01-26T05:16:15.302Z,87.71
2023-01-26T05:18:43.054Z,87.18
2023-01-26T05:21:11.089Z,86.73
2023-01-26T05:23:38.675Z,86.81
2023-01-26T05:26:06.428Z,87.21
2023-01-26T05:28:34.955Z,86.90
2023-01-26T05:31:03.826Z,86.71
2023-01-26T05:33:31.429Z,86.01
2023-01-26T05:35:59.336Z,86.32
2023-01-26T05:38:27.235Z,86.58
2023-01-26T05:40:54.691Z,85.97
2023-01-26T05:43:22.155Z,85.64
2023-01-26T05:45:49.687Z,85.18
2023-01-26T05:48:18.866Z,85.42
2023-01-26T05:50:46.580Z,85.95
2023-01-26T05:53:15.077Z,85.97
2023-01-26T05:55:42.584Z,85.71
2023-01-26T05:58:10.114Z,86.16
2023-01-26T06:00:37.570Z,86.36
2023-01-26T06:03:05.159Z,86.02
2023-01-26T06:05:33.988Z,86.75
2023-01-26T06:08:01.480Z,86.56
2023-01-26T06:10:28.997Z,86.75
2023-01-26T06:12:57.749Z,86.89
2023-01-26T06:15:25.215Z,87.04
2023-01-26T06:17:52.683Z,86.83
2023-01-26T06:20:20.282Z,85.82
2023-01-26T06:22:49.092Z,85.88
2023-01-26T06:25:16.569Z,86.00
2023-01-26T06:27:44.014Z,85.84
2023-01-26T06:30:12.809Z,85.92
2023-01-26T06:32:40.468Z,86.10
2023-01-26T06:35:09.284Z,85.96
2023-01-26T06:37:36.916Z,85.09
2023-01-26T06:40:06.970Z,84.50
2023-01-26T06:42:34.410Z,84.58
2023-01-26T06:45:01.924Z,84.27
2023-01-26T06:47:29.394Z,85.14
2023-01-26T06:49:57.129Z,84.91
2023-01-26T06:52:28.635Z,84.74
2023-01-26T06:54:56.678Z,83.60
2023-01-26T06:57:25.498Z,83.06
2023-01-26T06:59:52.987Z,82.85
2023-01-26T07:02:22.138Z,83.59
2023-01-26T07:04:50.540Z,83.69
2023-01-26T07:07:18.051Z,83.38
2023-01-26T07:09:45.543Z,84.01
2023-01-26T07:12:13.003Z,84.56
2023-01-26T07:14:41.818Z,83.96
2023-01-26T07:17:09.260Z,83.69
2023-01-26T07:19:37.292Z,85.06
2023-01-26T07:22:04.915Z,84.57
2023-01-26T07:24:32.537Z,84.07
2023-01-26T07:26:59.988Z,83.87
2023-01-26T07:29:27.470Z,83.80
2023-01-26T07:31:56.332Z,83.49
2023-01-26T07:34:23.811Z,83.64
2023-01-26T07:36:52.668Z,83.88
2023-01-26T07:39:20.125Z,83.62
2023-01-26T07:41:47.608Z,83.32
2023-01-26T07:44:15.138Z,82.52
2023-01-26T07:46:45.394Z,82.63
2023-01-26T07:49:14.496Z,82.94
2023-01-26T07:51:41.986Z,82.84
2023-01-26T07:54:11.701Z,82.53
2023-01-26T07:56:39.482Z,82.57
2023-01-26T07:59:07.017Z,83.18
2023-01-26T08:01:34.556Z,82.66
2023-01-26T08:04:02.034Z,82.77
2023-01-26T08:06:30.851Z,82.69
2023-01-26T08:08:58.861Z,82.79
2023-01-26T08:11:26.873Z,82.76
2023-01-26T08:13:54.384Z,82.54
2023-01-26T08:16:21.895Z,83.16
2023-01-26T08:18:49.629Z,82.44
2023-01-26T08:21:19.361Z,82.05
2023-01-26T08:23:51.244Z,81.85
2023-01-26T08:26:19.930Z,82.26
2023-01-26T08:28:47.444Z,82.03
2023-01-26T08:31:18.425Z,82.09
2023-01-26T08:33:47.093Z,82.07
2023-01-26T08:36:15.791Z,82.25
2023-01-26T08:38:43.759Z,81.70
2023-01-26T08:41:13.366Z,82.06
2023-01-26T08:43:41.070Z,81.53
2023-01-26T08:46:08.938Z,81.65
2023-01-26T08:48:37.330Z,80.99
2023-01-26T08:51:06.614Z,81.12
2023-01-26T08:53:35.520Z,80.85
2023-01-26T08:56:03.477Z,80.98
2023-01-26T08:58:33.606Z,80.46
2023-01-26T09:01:04.244Z,80.89
2023-01-26T09:03:31.785Z,80.41
2023-01-26T09:06:01.189Z,79.83
2023-01-26T09:08:28.662Z,79.76
2023-01-26T09:10:56.127Z,80.36
2023-01-26T09:13:23.886Z,79.90
2023-01-26T09:15:53.019Z,79.85
2023-01-26T09:18:20.582Z,80.30
2023-01-26T09:20:48.131Z,80.24
2023-01-26T09:23:18.027Z,80.34
2023-01-26T09:25:45.976Z,79.56
2023-01-26T09:28:13.597Z,79.85
2023-01-26T09:30:41.300Z,80.24
2023-01-26T09:33:10.168Z,80.09
2023-01-26T09:35:37.614Z,80.61
2023-01-26T09:38:05.091Z,80.28
2023-01-26T09:40:38.659Z,80.01
2023-01-26T09:43:15.962Z,79.99
2023-01-26T09:45:48.195Z,79.74
2023-01-26T09:48:25.468Z,79.21
2023-01-26T09:50:56.763Z,79.82
2023-01-26T09:53:27.518Z,80.16
2023-01-26T09:55:55.852Z,79.38
2023-01-26T09:58:30.590Z,79.10
2023-01-26T10:01:00.002Z,79.37
2023-01-26T10:03:32.278Z,79.82
2023-01-26T10:06:03.252Z,79.27
2023-01-26T10:08:30.720Z,79.65
2023-01-26T10:11:00.056Z,79.72
2023-01-26T10:13:27.606Z,79.41
2023-01-26T10:15:59.364Z,78.33
2023-01-26T10:18:31.550Z,77.71
2023-01-26T10:21:00.799Z,78.26
2023-01-26T10:23:30.304Z,77.99
2023-01-26T10:26:03.018Z,78.37
2023-01-26T10:28:32.015Z,79.20
2023-01-26T10:30:59.698Z,78.39
2023-01-26T10:33:32.589Z,78.62
2023-01-26T10:36:00.386Z,78.49
2023-01-26T10:38:29.796Z,78.32
2023-01-26T10:40:58.354Z,78.33
2023-01-26T10:43:25.950Z,78.07
2023-01-26T10:45:53.452Z,77.46
2023-01-26T10:48:24.057Z,77.86
2023-01-26T10:50:53.577Z,77.72
2023-01-26T10:53:28.175Z,77.66
2023-01-26T10:56:00.870Z,77.91
2023-01-26T10:58:55.923Z,77.65
2023-01-26T11:01:27.175Z,77.84
2023-01-26T11:04:01.775Z,77.24
2023-01-26T11:06:31.150Z,77.35
2023-01-26T11:09:10.234Z,77.60
2023-01-26T11:11:38.178Z,77.17
2023-01-26T11:14:12.253Z,76.96
2023-01-26T11:16:39.844Z,77.19
2023-01-26T11:19:12.232Z,76.94
2023-01-26T11:21:42.609Z,77.79
2023-01-26T11:24:14.597Z,77.23
2023-01-26T11:27:07.452Z,76.90
2023-01-26T11:29:56.853Z,76.90
2023-01-26T11:32:29.683Z,75.76
2023-01-26T11:35:07.936Z,74.74
2023-01-26T11:37:41.307Z,74.54
2023-01-26T11:40:41.407Z,74.64
2023-01-26T11:43:32.655Z,73.91
2023-01-26T11:46:08.900Z,74.28
2023-01-26T11:48:43.347Z,74.47
2023-01-26T11:51:20.873Z,73.20
2023-01-26T11:54:10.051Z,73.41
2023-01-26T11:56:45.354Z,74.27
2023-01-26T11:59:16.069Z,74.53
2023-01-26T12:01:47.092Z,73.73
2023-01-26T12:04:19.359Z,73.18
2023-01-26T12:06:48.813Z,73.09
2023-01-26T12:09:22.871Z,73.83
2023-01-26T12:11:56.843Z,73.60
2023-01-26T12:14:27.292Z,73.14
2023-01-26T12:17:17.276Z,72.57
2023-01-26T12:19:50.133Z,72.19
2023-01-26T12:22:21.942Z,72.66
2023-01-26T12:25:17.515Z,72.57
2023-01-26T12:27:43.729Z,73.58
2023-01-26T12:30:23.689Z,73.38
2023-01-26T12:32:51.397Z,73.92
2023-01-26T12:35:26.123Z,74.26
2023-01-26T12:38:12.206Z,73.66
2023-01-26T12:40:52.663Z,74.05
2023-01-26T12:43:28.273Z,74.11
2023-01-26T12:45:59.207Z,73.95
2023-01-26T12:48:34.318Z,74.08
2023-01-26T12:51:04.814Z,74.02
2023-01-26T12:53:37.200Z,73.99
2023-01-26T12:56:13.225Z,75.54
2023-01-26T12:58:42.021Z,75.13
2023-01-26T13:01:12.923Z,74.54
2023-01-26T13:03:42.935Z,75.13
2023-01-26T13:06:21.358Z,75.29
2023-01-26T13:08:53.683Z,75.38
2023-01-26T13:11:46.117Z,75.43
2023-01-26T13:14:36.544Z,76.51
2023-01-26T13:17:55.894Z,75.49
2023-01-26T13:20:43.002Z,75.28
2023-01-26T13:23:39.216Z,75.51
2023-01-26T13:26:16.052Z,75.92
2023-01-26T13:28:45.342Z,76.05
2023-01-26T13:31:13.237Z,75.88
2023-01-26T13:33:41.189Z,76.42
2023-01-26T13:36:15.495Z,76.19
2023-01-26T13:38:45.227Z,76.30
2023-01-26T13:41:18.630Z,77.07
2023-01-26T13:43:52.015Z,77.36
2023-01-26T13:46:25.109Z,77.33
2023-01-26T13:48:54.102Z,77.78
2023-01-26T13:51:23.325Z,78.27
2023-01-26T13:53:59.936Z,78.70
2023-01-26T13:56:30.453Z,79.43
2023-01-26T13:59:11.913Z,80.11
2023-01-26T14:01:43.800Z,80.45
2023-01-26T14:04:14.772Z,80.40
2023-01-26T14:06:43.719Z,80.15
2023-01-26T14:09:12.159Z,80.97
2023-01-26T14:11:39.870Z,80.45
2023-01-26T14:14:12.614Z,80.08
2023-01-26T14:16:40.473Z,80.47
2023-01-26T14:19:15.451Z,80.45
2023-01-26T14:21:47.490Z,80.93
2023-01-26T14:24:15.135Z,80.82
2023-01-26T14:26:43.171Z,80.89
2023-01-26T14:29:21.362Z,80.93
2023-01-26T14:31:49.878Z,81.68
2023-01-26T14:34:21.381Z,81.26
2023-01-26T14:36:48.902Z,81.00
2023-01-26T14:39:18.337Z,81.44
2023-01-26T14:41:46.589Z,80.94
2023-01-26T14:44:16.002Z,80.72
2023-01-26T14:47:01.723Z,80.99
2023-01-26T14:49:42.829Z,82.17
2023-01-26T14:52:18.056Z,82.01
2023-01-26T14:54:46.153Z,82.11
2023-01-26T14:57:19.579Z,81.84
2023-01-26T14:59:50.440Z,82.09
2023-01-26T15:02:20.062Z,82.13
2023-01-26T15:04:49.702Z,83.08
2023-01-26T15:07:31.097Z,83.42
2023-01-26T15:09:59.097Z,83.73
2023-01-26T15:12:26.652Z,83.09
2023-01-26T15:14:59.435Z,83.39
2023-01-26T15:17:31.617Z,83.71
2023-01-26T15:19:59.147Z,83.22
2023-01-26T15:22:27.436Z,83.51
2023-01-26T15:25:03.228Z,83.30
2023-01-26T15:27:37.604Z,83.65
2023-01-26T15:30:07.978Z,83.50
2023-01-26T15:32:40.122Z,85.23
2023-01-26T15:35:23.178Z,85.30
2023-01-26T15:37:51.343Z,84.94
2023-01-26T15:40:19.061Z,85.33
2023-01-26T15:42:46.611Z,85.33
2023-01-26T15:45:22.890Z,85.81
2023-01-26T15:47:50.353Z,85.42
2023-01-26T15:50:27.349Z,85.52
2023-01-26T15:52:55.834Z,86.17
2023-01-26T15:55:27.115Z,85.97
2023-01-26T15:57:54.620Z,85.45
2023-01-26T16:00:28.575Z,85.69
2023-01-26T16:02:56.196Z,85.77
2023-01-26T16:05:25.619Z,86.19
2023-01-26T16:07:53.491Z,85.20
2023-01-26T16:10:20.999Z,85.19
2023-01-26T16:12:49.624Z,85.66
2023-01-26T16:15:29.821Z,86.52
2023-01-26T16:17:57.368Z,86.32
2023-01-26T16:20:24.956Z,86.67
2023-01-26T16:22:52.420Z,87.03
2023-01-26T16:25:26.058Z,87.48
2023-01-26T16:27:54.727Z,88.41
2023-01-26T16:30:24.215Z,88.02
2023-01-26T16:32:52.179Z,88.87
2023-01-26T16:35:21.303Z,89.53
2023-01-26T16:37:48.874Z,89.09
2023-01-26T16:40:18.243Z,89.72
2023-01-26T16:42:48.858Z,91.57
2023-01-26T16:45:18.014Z,92.85
2023-01-26T16:47:49.551Z,93.44
2023-01-26T16:50:18.101Z,94.39
2023-01-26T16:52:48.125Z,94.68
2023-01-26T16:55:16.177Z,95.55
2023-01-26T16:57:45.158Z,96.18
2023-01-26T17:00:16.015Z,95.87
2023-01-26T17:02:44.854Z,96.18
2023-01-26T17:05:16.137Z,96.48
2023-01-26T17:07:43.794Z,96.10
2023-01-26T17:10:12.842Z,95.81
2023-01-26T17:12:40.372Z,95.41
2023-01-26T17:15:11.635Z,95.94
2023-01-26T17:17:39.725Z,96.27
2023-01-26T17:20:18.438Z,95.77
2023-01-26T17:22:48.389Z,95.81
2023-01-26T17:25:17.198Z,95.66
2023-01-26T17:27:45.133Z,96.73
2023-01-26T17:30:13.748Z,96.87
2023-01-26T17:32:42.915Z,96.78
2023-01-26T17:35:11.191Z,97.39
2023-01-26T17:37:39.532Z,97.45
2023-01-26T17:40:10.384Z,97.43
2023-01-26T17:42:38.046Z,97.42
2023-01-26T17:45:08.003Z,97.88
2023-01-26T17:47:36.149Z,97.80
2023-01-26T17:50:03.945Z,97.35
2023-01-26T17:52:35.202Z,97.51
2023-01-26T17:55:05.199Z,97.79
2023-01-26T17:57:34.600Z,98.17
2023-01-26T18:00:02.220Z,98.34
2023-01-26T18:02:30.015Z,98.27
2023-01-26T18:04:58.006Z,98.12
2023-01-26T18:07:25.919Z,98.48
2023-01-26T18:09:53.737Z,98.04
2023-01-26T18:12:21.416Z,98.21
2023-01-26T18:14:50.647Z,98.19
2023-01-26T18:17:18.228Z,98.42
2023-01-26T18:19:45.680Z,97.99
2023-01-26T18:22:13.134Z,98.29
2023-01-26T18:24:40.585Z,97.97
2023-01-26T18:27:08.052Z,97.63
2023-01-26T18:29:35.490Z,98.07
2023-01-26T18:32:04.592Z,97.96
2023-01-26T18:34:32.081Z,98.31
2023-01-26T18:36:59.595Z,98.50
2023-01-26T18:39:28.794Z,98.49
2023-01-26T18:41:56.269Z,98.07
2023-01-26T18:44:27.135Z,98.51
2023-01-26T18:46:54.814Z,98.65
2023-01-26T18:49:23.610Z,98.40
2023-01-26T18:51:52.140Z,99.27
2023-01-26T18:54:20.026Z,99.77
2023-01-26T18:56:47.848Z,100.00
2023-01-26T18:59:15.398Z,99.83
2023-01-26T19:01:43.634Z,99.81
2023-01-26T19:04:12.353Z,100.00
2023-01-26T19:06:41.381Z,100.00
2023-01-26T19:09:10.746Z,100.00
2023-01-26T19:11:39.411Z,99.68
2023-01-26T19:14:08.336Z,99.39
2023-01-26T19:16:36.908Z,99.07
2023-01-26T19:19:04.961Z,99.52
2023-01-26T19:21:33.944Z,99.31
2023-01-26T19:24:05.925Z,99.03
2023-01-26T19:26:33.962Z,99.10
2023-01-26T19:29:01.696Z,99.38
2023-01-26T19:31:30.626Z,99.88
2023-01-26T19:33:59.920Z,100.00
2023-01-26T19:36:29.645Z,100.00
2023-01-26T19:38:57.237Z,100.00
2023-01-26T19:41:27.084Z,100.00
2023-01-26T19:43:54.847Z,100.00
2023-01-26T19:46:22.587Z,100.00
2023-01-26T19:48:50.539Z,100.00
2023-01-26T19:51:19.382Z,100.00
2023-01-26T19:53:49.359Z,100.00
2023-01-26T19:56:18.876Z,100.00
2023-01-26T19:59:00.440Z,100.00
2023-01-26T20:01:29.106Z,100.00
2023-01-26T20:03:59.101Z,100.00
2023-01-26T20:06:30.317Z,100.00
2023-01-26T20:08:58.626Z,100.00
2023-01-26T20:11:28.779Z,100.00
2023-01-26T20:14:00.615Z,100.00
2023-01-26T20:16:28.865Z,100.00
2023-01-26T20:18:56.567Z,100.00
2023-01-26T20:21:24.246Z,100.00
2023-01-26T20:23:55.409Z,100.00
2023-01-26T20:26:24.363Z,100.00
2023-01-26T20:28:52.679Z,100.00
2023-01-26T20:31:24.443Z,100.00
2023-01-26T20:33:53.474Z,100.00
2023-01-26T20:36:23.593Z,100.00
2023-01-26T20:38:51.293Z,100.00
2023-01-26T20:41:21.759Z,100.00
2023-01-26T20:43:59.034Z,100.00
2023-01-26T20:46:29.331Z,100.00
2023-01-26T20:48:57.637Z,100.00
2023-01-26T20:51:30.214Z,100.00
2023-01-26T20:53:58.579Z,100.00
2023-01-26T20:56:26.798Z,100.00
2023-01-26T20:58:55.607Z,100.00
2023-01-26T21:01:24.210Z,100.00
2023-01-26T21:03:53.890Z,100.00
2023-01-26T21:06:23.972Z,100.00
2023-01-26T21:08:54.310Z,100.00
2023-01-26T21:11:22.477Z,100.00
2023-01-26T21:13:51.814Z,100.00
2023-01-26T21:16:20.143Z,100.00
2023-01-26T21:18:47.862Z,100.00
2023-01-26T21:21:18.624Z,100.00
2023-01-26T21:23:46.726Z,100.00
2023-01-26T21:26:15.915Z,100.00
2023-01-26T21:28:43.695Z,100.00
2023-01-26T21:31:13.715Z,100.00
2023-01-26T21:33:42.516Z,100.00
2023-01-26T21:36:11.899Z,100.00
2023-01-26T21:38:42.140Z,100.00
2023-01-26T21:41:25.707Z,100.00
2023-01-26T21:43:56.445Z,100.00
2023-01-26T21:46:24.143Z,100.00
2023-01-26T21:48:52.058Z,100.00
2023-01-26T21:51:37.455Z,100.00
2023-01-26T21:54:07.161Z,100.00
2023-01-26T21:56:35.133Z,100.00
2023-01-26T21:59:03.059Z,100.00
2023-01-26T22:01:31.501Z,100.00
2023-01-26T22:04:00.385Z,100.00
2023-01-26T22:06:28.167Z,100.00
2023-01-26T22:08:58.247Z,100.00
2023-01-26T22:11:27.647Z,100.00
2023-01-26T22:13:55.354Z,100.00
2023-01-26T22:16:23.514Z,100.00
2023-01-26T22:18:51.206Z,100.00
2023-01-26T22:21:19.456Z,100.00
2023-01-26T22:23:47.466Z,100.00
2023-01-26T22:26:17.534Z,100.00
2023-01-26T22:28:51.000Z,100.00
2023-01-26T22:31:19.773Z,100.00
2023-01-26T22:33:47.731Z,100.00
2023-01-26T22:36:15.288Z,100.00
2023-01-26T22:38:43.422Z,100.00
2023-01-26T22:41:14.154Z,100.00
2023-01-26T22:43:41.843Z,100.00
2023-01-26T22:46:12.169Z,100.00
2023-01-26T22:48:39.873Z,100.00
2023-01-26T22:51:08.793Z,100.00
2023-01-26T22:53:37.075Z,100.00
2023-01-26T22:56:05.426Z,100.00
2023-01-26T22:58:34.322Z,100.00
2023-01-26T23:01:08.070Z,100.00
2023-01-26T23:03:38.197Z,100.00
2023-01-26T23:06:12.311Z,100.00
2023-01-26T23:08:40.063Z,100.00
2023-01-26T23:11:09.305Z,100.00
2023-01-26T23:13:37.442Z,100.00
2023-01-26T23:16:07.478Z,100.00
2023-01-26T23:18:37.977Z,100.00
2023-01-26T23:21:09.147Z,100.00
2023-01-26T23:23:38.647Z,100.00
2023-01-26T23:26:09.786Z,100.00
2023-01-26T23:28:39.152Z,100.00
2023-01-26T23:31:07.256Z,100.00
2023-01-26T23:33:37.059Z,100.00
2023-01-26T23:36:05.830Z,100.00
2023-01-26T23:38:33.604Z,100.00
2023-01-26T23:41:01.279Z,100.00
2023-01-26T23:43:29.055Z,100.00
2023-01-26T23:45:56.980Z,100.00
2023-01-26T23:48:24.778Z,100.00
2023-01-26T23:50:58.773Z,100.00
2023-01-26T23:53:28.252Z,100.00
2023-01-26T23:55:56.132Z,100.00
2023-01-26T23:58:24.319Z,100.00
